createdAt,value
2018-07-08T00:00:08.444Z,2.70
2018-07-08T00:02:37.117Z,2.30
2018-07-08T00:05:05.852Z,2.67
2018-07-08T00:07:34.506Z,2.50
2018-07-08T00:10:03.222Z,2.60
2018-07-08T00:12:32.011Z,2.27
2018-07-08T00:15:00.781Z,2.80
2018-07-08T00:17:29.589Z,2.60
2018-07-08T00:19:58.427Z,2.50
2018-07-08T00:22:27.068Z,2.20
2018-07-08T00:24:55.701Z,2.20
2018-07-08T00:27:24.424Z,2.87
2018-07-08T00:29:53.137Z,2.87
2018-07-08T00:32:21.860Z,2.87
2018-07-08T00:34:50.572Z,3.07
2018-07-08T00:37:19.435Z,2.80
2018-07-08T00:39:48.131Z,2.70
2018-07-08T00:42:16.979Z,2.83
2018-07-08T00:44:45.677Z,2.63
2018-07-08T00:47:14.336Z,2.53
2018-07-08T00:49:43.001Z,2.70
2018-07-08T00:52:11.915Z,2.53
2018-07-08T00:54:40.701Z,2.47
2018-07-08T00:57:09.517Z,2.63
2018-07-08T00:59:38.200Z,2.30
2018-07-08T01:02:07.015Z,2.27
2018-07-08T01:04:35.781Z,2.10
2018-07-08T01:07:04.546Z,2.17
2018-07-08T01:09:33.378Z,2.50
2018-07-08T01:12:02.157Z,2.70
2018-07-08T01:14:30.918Z,2.60
2018-07-08T01:16:59.724Z,2.20
2018-07-08T01:19:28.738Z,2.53
2018-07-08T01:21:57.516Z,2.60
2018-07-08T01:24:26.261Z,2.23
2018-07-08T01:26:54.921Z,2.37
2018-07-08T01:29:23.621Z,2.70
2018-07-08T01:31:52.440Z,2.60
2018-07-08T01:34:21.169Z,2.30
2018-07-08T01:36:49.508Z,2.40
2018-07-08T01:39:18.217Z,2.00
2018-07-08T01:41:46.882Z,2.10
2018-07-08T01:44:15.611Z,2.60
2018-07-08T01:46:44.348Z,2.53
2018-07-08T01:49:13.001Z,2.10
2018-07-08T01:51:41.669Z,2.20
2018-07-08T01:54:10.372Z,2.17
2018-07-08T01:56:39.225Z,2.20
2018-07-08T01:59:07.957Z,2.23
2018-07-08T02:01:36.690Z,2.20
2018-07-08T02:04:05.790Z,2.30
2018-07-08T02:06:34.511Z,2.17
2018-07-08T02:09:03.504Z,2.20
2018-07-08T02:11:32.560Z,2.40
2018-07-08T02:14:01.433Z,1.80
2018-07-08T02:16:30.244Z,2.27
2018-07-08T02:18:58.929Z,1.93
2018-07-08T02:21:28.005Z,2.17
2018-07-08T02:23:56.838Z,1.90
2018-07-08T02:26:25.657Z,1.90
2018-07-08T02:28:54.801Z,1.80
2018-07-08T02:31:23.485Z,2.10
2018-07-08T02:33:52.326Z,1.73
2018-07-08T02:36:21.135Z,2.07
2018-07-08T02:38:49.861Z,2.10
2018-07-08T02:41:18.610Z,2.03
2018-07-08T02:43:47.430Z,1.90
2018-07-08T02:46:16.270Z,2.10
2018-07-08T02:48:44.941Z,2.07
2018-07-08T02:51:13.673Z,1.90
2018-07-08T02:53:42.369Z,2.10
2018-07-08T02:56:11.137Z,1.90
2018-07-08T02:58:39.780Z,2.00
2018-07-08T03:01:08.419Z,2.40
2018-07-08T03:03:37.072Z,1.87
2018-07-08T03:06:05.985Z,2.23
2018-07-08T03:08:34.782Z,2.00
2018-07-08T03:11:03.576Z,1.90
2018-07-08T03:13:32.358Z,1.80
2018-07-08T03:16:01.028Z,2.20
2018-07-08T03:18:29.958Z,2.30
2018-07-08T03:20:58.651Z,1.67
2018-07-08T03:23:27.352Z,1.87
2018-07-08T03:25:55.660Z,2.20
2018-07-08T03:28:24.345Z,1.90
2018-07-08T03:30:52.979Z,1.83
2018-07-08T03:33:21.961Z,2.00
2018-07-08T03:35:50.808Z,1.90
2018-07-08T03:38:19.625Z,2.10
2018-07-08T03:40:48.288Z,2.07
2018-07-08T03:43:16.970Z,1.80
2018-07-08T03:45:45.646Z,2.60
2018-07-08T03:48:14.473Z,2.20
2018-07-08T03:50:43.092Z,2.10
2018-07-08T03:53:11.775Z,2.00
2018-07-08T03:55:40.507Z,2.17
2018-07-08T03:58:09.141Z,2.00
2018-07-08T04:00:37.796Z,2.00
2018-07-08T04:03:06.646Z,2.00
2018-07-08T04:05:35.359Z,1.70
2018-07-08T04:08:04.128Z,2.23
2018-07-08T04:10:32.988Z,1.70
2018-07-08T04:13:02.274Z,2.17
2018-07-08T04:15:31.177Z,1.70
2018-07-08T04:18:04.368Z,1.90
2018-07-08T04:20:33.075Z,1.87
2018-07-08T04:23:02.097Z,2.10
2018-07-08T04:25:31.000Z,2.03
2018-07-08T04:27:59.821Z,1.80
2018-07-08T04:30:29.074Z,1.73
2018-07-08T04:32:57.740Z,1.90
2018-07-08T04:35:26.689Z,1.70
2018-07-08T04:37:55.421Z,1.70
2018-07-08T04:40:23.745Z,2.20
2018-07-08T04:42:52.457Z,1.70
2018-07-08T04:45:21.165Z,1.80
2018-07-08T04:47:49.830Z,2.00
2018-07-08T04:50:18.546Z,1.60
2018-07-08T04:52:47.480Z,1.60
2018-07-08T04:55:16.261Z,2.00
2018-07-08T04:57:44.985Z,1.83
2018-07-08T05:00:13.700Z,2.00
2018-07-08T05:02:42.365Z,1.93
2018-07-08T05:05:11.153Z,1.90
2018-07-08T05:07:40.481Z,2.17
2018-07-08T05:10:09.525Z,1.67
2018-07-08T05:12:38.422Z,1.90
2018-07-08T05:15:07.121Z,2.00
2018-07-08T05:17:35.797Z,1.93
2018-07-08T05:20:04.551Z,1.90
2018-07-08T05:22:33.275Z,2.07
2018-07-08T05:25:02.022Z,2.03
2018-07-08T05:27:32.092Z,2.30
2018-07-08T05:30:00.747Z,1.93
2018-07-08T05:32:29.432Z,1.90
2018-07-08T05:34:58.238Z,1.80
2018-07-08T05:37:27.009Z,2.00
2018-07-08T05:39:55.745Z,2.07
2018-07-08T05:42:24.372Z,1.97
2018-07-08T05:44:53.117Z,2.27
2018-07-08T05:47:21.861Z,1.63
2018-07-08T05:49:50.664Z,1.77
2018-07-08T05:52:19.416Z,1.90
2018-07-08T05:54:48.017Z,1.97
2018-07-08T05:57:17.389Z,2.10
2018-07-08T05:59:46.102Z,2.13
2018-07-08T06:02:15.192Z,2.60
2018-07-08T06:04:43.961Z,2.07
2018-07-08T06:07:12.637Z,2.20
2018-07-08T06:09:41.294Z,2.17
2018-07-08T06:12:10.085Z,2.10
2018-07-08T06:14:38.768Z,1.87
2018-07-08T06:17:07.678Z,1.90
2018-07-08T06:19:36.555Z,1.67
2018-07-08T06:22:05.346Z,2.07
2018-07-08T06:24:34.107Z,2.10
2018-07-08T06:27:02.923Z,1.83
2018-07-08T06:29:31.629Z,1.90
2018-07-08T06:32:00.408Z,1.67
2018-07-08T06:34:29.083Z,1.73
2018-07-08T06:36:57.884Z,2.03
2018-07-08T06:39:26.631Z,1.93
2018-07-08T06:41:55.446Z,1.80
2018-07-08T06:44:24.081Z,1.77
2018-07-08T06:46:52.764Z,2.00
2018-07-08T06:49:21.598Z,1.97
2018-07-08T06:51:50.284Z,1.80
2018-07-08T06:54:19.047Z,2.03
2018-07-08T06:56:47.690Z,1.83
2018-07-08T06:59:16.372Z,2.13
2018-07-08T07:01:45.024Z,2.27
2018-07-08T07:04:13.971Z,1.97
2018-07-08T07:06:42.651Z,2.53
2018-07-08T07:09:11.604Z,2.07
2018-07-08T07:11:42.065Z,2.03
2018-07-08T07:14:10.744Z,1.97
2018-07-08T07:16:39.517Z,1.83
2018-07-08T07:19:08.185Z,1.90
2018-07-08T07:21:36.929Z,2.00
2018-07-08T07:24:06.166Z,2.40
2018-07-08T07:26:34.865Z,2.13
2018-07-08T07:29:03.844Z,2.10
2018-07-08T07:31:32.585Z,1.87
2018-07-08T07:34:01.373Z,1.90
2018-07-08T07:36:30.026Z,1.97
2018-07-08T07:38:58.727Z,2.23
2018-07-08T07:41:27.381Z,2.07
2018-07-08T07:43:56.106Z,2.30
2018-07-08T07:46:24.816Z,2.17
2018-07-08T07:48:53.863Z,2.07
2018-07-08T07:51:22.581Z,1.90
2018-07-08T07:53:51.199Z,2.00
2018-07-08T07:56:19.883Z,2.00
2018-07-08T07:58:48.544Z,2.23
2018-07-08T08:01:17.268Z,2.07
2018-07-08T08:03:45.952Z,1.90
2018-07-08T08:06:14.700Z,2.00
2018-07-08T08:08:43.426Z,1.87
2018-07-08T08:11:12.167Z,1.77
2018-07-08T08:13:52.179Z,1.80
2018-07-08T08:16:20.805Z,1.90
2018-07-08T08:18:49.782Z,2.00
2018-07-08T08:21:18.865Z,1.87
2018-07-08T08:23:47.583Z,2.10
2018-07-08T08:26:16.566Z,2.27
2018-07-08T08:28:45.233Z,1.83
2018-07-08T08:31:13.945Z,1.70
2018-07-08T08:33:42.861Z,2.67
2018-07-08T08:36:11.702Z,2.30
2018-07-08T08:38:40.376Z,1.90
2018-07-08T08:41:09.114Z,1.93
2018-07-08T08:43:37.882Z,1.87
2018-07-08T08:46:06.525Z,2.07
2018-07-08T08:48:35.476Z,1.83
2018-07-08T08:51:04.216Z,2.07
2018-07-08T08:53:32.905Z,2.57
2018-07-08T08:56:07.312Z,2.17
2018-07-08T08:58:36.074Z,2.03
2018-07-08T09:01:04.685Z,1.93
2018-07-08T09:03:33.344Z,1.80
2018-07-08T09:06:01.984Z,2.10
2018-07-08T09:08:30.628Z,1.90
2018-07-08T09:10:59.374Z,1.70
2018-07-08T09:13:29.541Z,1.97
2018-07-08T09:15:58.216Z,2.00
2018-07-08T09:18:26.880Z,1.80
2018-07-08T09:20:55.530Z,1.80
2018-07-08T09:23:24.226Z,1.90
2018-07-08T09:25:52.941Z,1.83
2018-07-08T09:28:21.607Z,2.00
2018-07-08T09:30:50.341Z,1.70
2018-07-08T09:33:19.216Z,2.00
2018-07-08T09:35:48.066Z,2.33
2018-07-08T09:38:16.850Z,2.03
2018-07-08T09:40:45.742Z,2.10
2018-07-08T09:43:14.531Z,1.77
2018-07-08T09:45:43.283Z,1.80
2018-07-08T09:48:11.924Z,1.80
2018-07-08T09:50:40.582Z,1.80
2018-07-08T09:53:09.396Z,1.77
2018-07-08T09:55:38.270Z,2.37
2018-07-08T09:58:07.007Z,2.37
2018-07-08T10:00:35.863Z,2.27
2018-07-08T10:03:04.520Z,1.80
2018-07-08T10:05:33.320Z,1.70
2018-07-08T10:08:01.986Z,1.90
2018-07-08T10:10:30.815Z,2.27
2018-07-08T10:12:59.501Z,1.87
2018-07-08T10:15:28.186Z,1.83
2018-07-08T10:17:56.872Z,1.93
2018-07-08T10:20:25.950Z,2.10
2018-07-08T10:22:54.555Z,1.80
2018-07-08T10:25:23.179Z,1.87
2018-07-08T10:28:04.520Z,1.83
2018-07-08T10:30:33.249Z,2.10
2018-07-08T10:33:01.995Z,2.17
2018-07-08T10:35:41.843Z,1.93
2018-07-08T10:38:10.898Z,1.83
2018-07-08T10:40:39.653Z,1.93
2018-07-08T10:43:08.413Z,2.10
2018-07-08T10:45:37.078Z,1.83
2018-07-08T10:48:05.888Z,2.13
2018-07-08T10:50:34.561Z,2.20
2018-07-08T10:53:03.273Z,2.30
2018-07-08T10:55:32.031Z,2.03
2018-07-08T10:58:00.722Z,1.90
2018-07-08T11:00:29.425Z,2.50
2018-07-08T11:02:58.230Z,2.30
2018-07-08T11:05:26.856Z,2.23
2018-07-08T11:07:56.057Z,2.90
2018-07-08T11:10:24.997Z,2.60
2018-07-08T11:12:53.819Z,2.03
2018-07-08T11:15:22.491Z,2.67
2018-07-08T11:17:51.430Z,2.70
2018-07-08T11:20:20.724Z,2.20
2018-07-08T11:22:49.396Z,2.50
2018-07-08T11:25:18.555Z,2.40
2018-07-08T11:27:47.275Z,2.97
2018-07-08T11:30:15.935Z,2.60
2018-07-08T11:32:44.665Z,2.50
2018-07-08T11:35:13.282Z,2.90
2018-07-08T11:37:41.947Z,3.23
2018-07-08T11:40:10.638Z,2.93
2018-07-08T11:42:39.296Z,2.80
2018-07-08T11:45:08.117Z,2.60
2018-07-08T11:47:36.758Z,2.93
2018-07-08T11:50:05.104Z,3.00
2018-07-08T11:52:33.805Z,2.90
2018-07-08T11:55:02.496Z,3.17
2018-07-08T11:57:31.137Z,3.02
2018-07-08T11:59:59.788Z,2.87
2018-07-08T12:02:28.457Z,3.02
2018-07-08T12:04:57.139Z,2.90
2018-07-08T12:07:25.816Z,3.10
2018-07-08T12:09:54.583Z,2.80
2018-07-08T12:12:23.352Z,3.07
2018-07-08T12:14:52.058Z,2.87
2018-07-08T12:17:20.708Z,2.93
2018-07-08T12:19:49.408Z,3.23
2018-07-08T12:22:18.138Z,2.72
2018-07-08T12:24:47.258Z,2.83
2018-07-08T12:27:16.080Z,3.40
2018-07-08T12:29:44.741Z,3.27
2018-07-08T12:32:13.401Z,3.20
2018-07-08T12:34:42.097Z,3.72
2018-07-08T12:37:10.810Z,4.03
2018-07-08T12:39:39.504Z,3.47
2018-07-08T12:42:08.234Z,3.43
2018-07-08T12:44:37.083Z,3.93
2018-07-08T12:47:05.945Z,3.57
2018-07-08T12:49:34.704Z,3.50
2018-07-08T12:52:03.377Z,3.57
2018-07-08T12:54:32.090Z,3.27
2018-07-08T12:57:00.855Z,3.50
2018-07-08T12:59:29.595Z,4.45
2018-07-08T13:01:58.838Z,4.10
2018-07-08T13:04:27.561Z,3.83
2018-07-08T13:06:56.316Z,4.05
2018-07-08T13:09:25.002Z,4.33
2018-07-08T13:11:53.626Z,3.95
2018-07-08T13:14:22.276Z,4.07
2018-07-08T13:16:50.986Z,4.67
2018-07-08T13:19:19.697Z,4.15
2018-07-08T13:21:48.340Z,3.00
2018-07-08T13:24:17.061Z,4.30
2018-07-08T13:26:45.740Z,4.00
2018-07-08T13:29:14.421Z,4.10
2018-07-08T13:31:43.281Z,4.10
2018-07-08T13:34:11.945Z,3.80
2018-07-08T13:36:40.661Z,4.00
2018-07-08T13:39:10.364Z,4.40
2018-07-08T13:41:39.438Z,4.03
2018-07-08T13:44:08.394Z,3.98
2018-07-08T13:46:37.117Z,4.20
2018-07-08T13:49:05.832Z,3.93
2018-07-08T13:51:34.592Z,4.10
2018-07-08T13:54:03.265Z,4.40
2018-07-08T13:56:31.937Z,4.20
2018-07-08T13:59:00.666Z,4.20
2018-07-08T14:01:29.291Z,3.83
2018-07-08T14:03:57.917Z,3.42
2018-07-08T14:06:26.573Z,4.10
2018-07-08T14:08:55.289Z,4.17
2018-07-08T14:11:24.056Z,3.65
2018-07-08T14:13:52.819Z,4.33
2018-07-08T14:16:21.560Z,4.15
2018-07-08T14:18:50.224Z,3.75
2018-07-08T14:21:18.849Z,3.72
2018-07-08T14:23:47.536Z,3.65
2018-07-08T14:26:16.246Z,4.00
2018-07-08T14:28:44.964Z,3.80
2018-07-08T14:31:13.676Z,3.87
2018-07-08T14:33:42.312Z,3.77
2018-07-08T14:36:10.965Z,3.90
2018-07-08T14:38:39.629Z,3.70
2018-07-08T14:41:08.308Z,3.80
2018-07-08T14:43:37.005Z,4.17
2018-07-08T14:46:05.911Z,3.83
2018-07-08T14:48:34.549Z,3.80
2018-07-08T14:51:03.212Z,4.33
2018-07-08T14:53:31.956Z,4.10
2018-07-08T14:56:00.747Z,3.93
2018-07-08T14:58:29.498Z,3.70
2018-07-08T15:00:58.446Z,3.95
2018-07-08T15:03:27.128Z,4.10
2018-07-08T15:05:55.817Z,4.47
2018-07-08T15:08:24.497Z,3.92
2018-07-08T15:10:53.189Z,3.67
2018-07-08T15:13:21.848Z,3.90
2018-07-08T15:15:50.539Z,3.90
2018-07-08T15:18:19.189Z,4.00
2018-07-08T15:20:47.862Z,4.20
2018-07-08T15:23:16.620Z,4.17
2018-07-08T15:25:45.333Z,3.85
2018-07-08T15:28:14.112Z,3.70
2018-07-08T15:30:42.768Z,4.10
2018-07-08T15:33:11.929Z,4.10
2018-07-08T15:35:40.574Z,4.22
2018-07-08T15:38:09.481Z,3.87
2018-07-08T15:40:38.273Z,4.00
2018-07-08T15:43:06.956Z,3.95
2018-07-08T15:45:35.629Z,3.83
2018-07-08T15:48:04.317Z,4.40
2018-07-08T15:50:33.017Z,4.20
2018-07-08T15:53:01.905Z,3.98
2018-07-08T15:55:30.541Z,4.00
2018-07-08T15:57:59.235Z,4.50
2018-07-08T16:00:27.885Z,4.40
2018-07-08T16:02:56.548Z,4.47
2018-07-08T16:05:25.252Z,4.93
2018-07-08T16:07:53.910Z,4.35
2018-07-08T16:10:22.613Z,4.80
2018-07-08T16:12:52.133Z,4.75
2018-07-08T16:15:20.798Z,4.95
2018-07-08T16:17:49.541Z,5.07
2018-07-08T16:20:18.202Z,5.17
2018-07-08T16:22:47.963Z,5.47
2018-07-08T16:25:16.625Z,5.15
2018-07-08T16:27:45.360Z,5.17
2018-07-08T16:30:14.024Z,5.10
2018-07-08T16:32:42.664Z,4.90
2018-07-08T16:35:11.369Z,5.10
2018-07-08T16:37:40.002Z,4.37
2018-07-08T16:40:08.742Z,4.80
2018-07-08T16:42:37.494Z,4.83
2018-07-08T16:45:06.161Z,4.73
2018-07-08T16:47:34.857Z,4.83
2018-07-08T16:50:03.716Z,4.53
2018-07-08T16:52:32.661Z,4.33
2018-07-08T16:55:01.313Z,4.28
2018-07-08T16:57:29.948Z,4.70
2018-07-08T16:59:58.765Z,4.28
2018-07-08T17:02:27.548Z,5.30
2018-07-08T17:04:56.200Z,4.90
2018-07-08T17:07:25.076Z,4.23
2018-07-08T17:09:53.897Z,4.20
2018-07-08T17:12:22.613Z,4.60
2018-07-08T17:14:51.320Z,4.45
2018-07-08T17:17:20.110Z,4.28
2018-07-08T17:19:48.822Z,4.10
2018-07-08T17:22:17.563Z,4.25
2018-07-08T17:24:46.264Z,4.80
2018-07-08T17:27:14.961Z,4.50
2018-07-08T17:29:43.670Z,4.70
2018-07-08T17:32:12.611Z,4.33
2018-07-08T17:34:41.464Z,4.35
2018-07-08T17:37:10.265Z,4.65
2018-07-08T17:39:38.953Z,4.17
2018-07-08T17:42:07.699Z,3.98
2018-07-08T17:44:36.283Z,4.53
2018-07-08T17:47:04.962Z,4.33
2018-07-08T17:49:33.714Z,4.00
2018-07-08T17:52:02.386Z,5.25
2018-07-08T17:54:30.768Z,7.33
2018-07-08T17:56:59.434Z,4.60
2018-07-08T17:59:29.250Z,4.33
2018-07-08T18:01:58.942Z,4.00
2018-07-08T18:04:28.499Z,3.90
2018-07-08T18:06:58.525Z,4.15
2018-07-08T18:09:29.254Z,4.33
2018-07-08T18:11:58.860Z,4.03
2018-07-08T18:14:28.484Z,4.10
2018-07-08T18:16:58.173Z,4.22
2018-07-08T18:19:28.500Z,4.00
2018-07-08T18:21:58.157Z,4.35
2018-07-08T18:24:27.727Z,3.87
2018-07-08T18:26:57.460Z,4.10
2018-07-08T18:29:26.420Z,3.90
2018-07-08T18:31:56.609Z,3.98
2018-07-08T18:34:26.542Z,4.33
2018-07-08T18:36:56.534Z,4.00
2018-07-08T18:39:26.196Z,3.67
2018-07-08T18:41:56.110Z,3.80
2018-07-08T18:44:25.547Z,3.92
2018-07-08T18:46:55.617Z,4.08
2018-07-08T18:49:25.563Z,4.40
2018-07-08T18:51:55.372Z,3.83
2018-07-08T18:54:24.056Z,4.22
2018-07-08T18:56:53.060Z,4.22
2018-07-08T18:59:22.007Z,3.90
2018-07-08T19:01:50.723Z,4.40
2018-07-08T19:04:19.613Z,4.72
2018-07-08T19:06:48.317Z,4.25
2018-07-08T19:09:17.052Z,4.45
2018-07-08T19:11:45.469Z,4.33
2018-07-08T19:14:14.287Z,4.33
2018-07-08T19:16:43.133Z,4.87
2018-07-08T19:19:12.142Z,4.12
2018-07-08T19:21:47.792Z,4.50
2018-07-08T19:24:16.818Z,4.77
2018-07-08T19:26:45.457Z,4.47
2018-07-08T19:29:14.260Z,4.77
2018-07-08T19:31:42.927Z,4.47
2018-07-08T19:34:11.666Z,5.22
2018-07-08T19:36:40.404Z,4.10
2018-07-08T19:39:10.191Z,4.62
2018-07-08T19:41:40.209Z,4.50
2018-07-08T19:44:09.002Z,4.47
2018-07-08T19:46:38.369Z,4.28
2018-07-08T19:49:07.088Z,4.62
2018-07-08T19:51:35.921Z,4.03
2018-07-08T19:54:04.731Z,4.33
2018-07-08T19:56:33.457Z,3.58
2018-07-08T19:59:02.142Z,4.28
2018-07-08T20:01:30.851Z,4.43
2018-07-08T20:03:59.516Z,4.07
2018-07-08T20:06:28.160Z,4.53
2018-07-08T20:08:56.976Z,4.30
2018-07-08T20:11:25.663Z,4.15
2018-07-08T20:13:54.368Z,4.27
2018-07-08T20:16:23.144Z,3.98
2018-07-08T20:18:51.809Z,4.40
2018-07-08T20:21:20.810Z,3.90
2018-07-08T20:23:49.343Z,4.15
2018-07-08T20:26:18.010Z,4.40
2018-07-08T20:28:46.733Z,4.17
2018-07-08T20:31:15.359Z,4.25
2018-07-08T20:33:44.065Z,4.20
2018-07-08T20:36:12.975Z,4.03
2018-07-08T20:38:41.733Z,4.47
2018-07-08T20:41:10.467Z,4.20
2018-07-08T20:43:39.196Z,4.83
2018-07-08T20:46:07.826Z,4.23
2018-07-08T20:48:36.976Z,4.30
2018-07-08T20:51:05.629Z,4.10
2018-07-08T20:53:34.282Z,4.57
2018-07-08T20:56:03.228Z,4.20
2018-07-08T20:58:32.005Z,4.23
2018-07-08T21:01:00.665Z,4.47
2018-07-08T21:03:29.567Z,4.83
2018-07-08T21:05:58.280Z,4.20
2018-07-08T21:08:27.454Z,4.07
2018-07-08T21:10:56.344Z,4.35
2018-07-08T21:13:25.035Z,4.05
2018-07-08T21:15:54.226Z,4.50
2018-07-08T21:18:23.160Z,4.10
2018-07-08T21:20:52.011Z,4.00
2018-07-08T21:23:20.516Z,4.43
2018-07-08T21:25:49.292Z,4.10
2018-07-08T21:28:18.081Z,4.53
2018-07-08T21:30:46.772Z,4.13
2018-07-08T21:33:15.420Z,4.20
2018-07-08T21:35:44.247Z,4.43
2018-07-08T21:38:13.023Z,3.90
2018-07-08T21:40:42.017Z,4.73
2018-07-08T21:43:10.842Z,4.30
2018-07-08T21:45:39.696Z,4.60
2018-07-08T21:48:08.389Z,4.70
2018-07-08T21:50:37.206Z,4.90
2018-07-08T21:53:06.077Z,4.30
2018-07-08T21:55:34.772Z,4.90
2018-07-08T21:58:03.557Z,4.60
2018-07-08T22:00:33.179Z,4.80
2018-07-08T22:03:02.142Z,4.40
2018-07-08T22:05:31.978Z,4.40
2018-07-08T22:08:04.289Z,4.20
2018-07-08T22:10:33.745Z,4.20
2018-07-08T22:13:03.193Z,4.27
2018-07-08T22:15:31.475Z,4.57
2018-07-08T22:18:00.299Z,4.63
2018-07-08T22:20:28.996Z,4.53
2018-07-08T22:22:57.748Z,4.70
2018-07-08T22:25:26.486Z,4.90
2018-07-08T22:27:55.252Z,4.63
2018-07-08T22:30:23.889Z,4.83
2018-07-08T22:32:52.623Z,4.20
2018-07-08T22:35:21.417Z,4.87
2018-07-08T22:37:50.248Z,4.33
2018-07-08T22:40:18.684Z,4.80
2018-07-08T22:42:47.437Z,4.20
2018-07-08T22:45:16.155Z,4.33
2018-07-08T22:47:44.988Z,4.70
2018-07-08T22:50:13.750Z,4.57
2018-07-08T22:52:42.550Z,4.37
2018-07-08T22:55:11.281Z,4.87
2018-07-08T22:57:40.134Z,4.47
2018-07-08T23:00:19.982Z,4.93
2018-07-08T23:02:49.067Z,4.80
2018-07-08T23:05:17.748Z,4.67
2018-07-08T23:07:46.420Z,4.33
2018-07-08T23:10:15.120Z,4.40
2018-07-08T23:12:44.013Z,4.20
2018-07-08T23:15:12.886Z,4.33
2018-07-08T23:17:45.253Z,4.87
2018-07-08T23:20:14.148Z,4.60
2018-07-08T23:22:54.832Z,4.80
2018-07-08T23:25:23.571Z,4.40
2018-07-08T23:27:52.430Z,4.57
2018-07-08T23:30:21.133Z,5.23
2018-07-08T23:32:50.040Z,5.17
2018-07-08T23:35:19.240Z,4.73
2018-07-08T23:37:48.129Z,5.07
2018-07-08T23:40:16.916Z,4.90
2018-07-08T23:42:45.716Z,4.73
2018-07-08T23:45:19.614Z,4.53
2018-07-08T23:47:48.349Z,4.40
2018-07-08T23:50:17.024Z,4.30
2018-07-08T23:52:45.740Z,4.70
2018-07-08T23:55:14.446Z,4.83
2018-07-08T23:57:43.161Z,4.87
